Time;durP1;ratioP1;P1;durP2;ratioP2;P2;SDS_P1;SDS_P2;PMS_P1;PMS_P2;Temp;Humidity;BMP_temperature;BMP_pressure;BME280_temperature;BME280_humidity;BME280_pressure;Samples;Min_cycle;Max_cycle;Signal;HPM_P1;HPM_P2
2023/01/28 00:01:43;;;;;;;0.50;0.10;;;3.40;99.90;;;;;;4935811;29;20445;-69
2023/01/28 00:04:11;;;;;;;0.60;0.30;;;3.40;99.90;;;;;;4934610;29;20480;-67
2023/01/28 00:06:39;;;;;;;0.80;0.50;;;3.40;99.90;;;;;;4935995;29;20506;-69
2023/01/28 00:09:07;;;;;;;0.50;0.10;;;3.40;99.90;;;;;;4929298;29;20871;-69
2023/01/28 00:11:34;;;;;;;0.50;0.10;;;3.40;99.90;;;;;;4930339;29;20467;-69
2023/01/28 00:14:04;;;;;;;0.50;0.30;;;3.40;99.90;;;;;;4929130;29;20500;-68
2023/01/28 00:16:32;;;;;;;1.80;1.63;;;3.40;99.90;;;;;;4931957;29;20484;-67
2023/01/28 00:19:00;;;;;;;0.50;0.10;;;3.40;99.90;;;;;;4929373;29;20486;-68
2023/01/28 00:21:28;;;;;;;0.50;0.10;;;;;;;;;;4934868;29;20519;-68
2023/01/28 00:23:56;;;;;;;0.50;0.10;;;3.30;99.90;;;;;;4935502;29;20479;-69
2023/01/28 00:26:26;;;;;;;0.50;0.20;;;3.30;99.90;;;;;;4932684;29;20785;-68
2023/01/28 00:28:54;;;;;;;0.70;0.33;;;3.30;99.90;;;;;;4931939;29;20977;-68
2023/01/28 00:31:26;;;;;;;0.60;0.30;;;;;;;;;;4923803;29;20835;-68
2023/01/28 00:33:55;;;;;;;0.60;0.60;;;3.20;99.90;;;;;;4932246;29;20501;-68
2023/01/28 00:36:25;;;;;;;0.50;0.20;;;3.20;99.90;;;;;;4925047;29;20467;-68
2023/01/28 00:38:58;;;;;;;1.70;1.60;;;3.10;99.90;;;;;;4934732;29;20454;-69
2023/01/28 00:41:28;;;;;;;0.50;0.10;;;3.10;99.90;;;;;;4929647;29;20537;-68
2023/01/28 00:43:57;;;;;;;0.50;0.10;;;3.10;99.90;;;;;;4935667;29;20504;-68
2023/01/28 00:46:26;;;;;;;0.60;0.20;;;;;;;;;;4930587;29;20447;-69
2023/01/28 00:48:54;;;;;;;0.50;0.20;;;3.00;99.90;;;;;;4938882;29;20475;-69
2023/01/28 00:51:22;;;;;;;0.50;0.10;;;3.00;99.90;;;;;;4935250;29;20836;-69
2023/01/28 00:53:51;;;;;;;0.50;0.10;;;3.00;99.90;;;;;;4929698;29;20554;-68
2023/01/28 00:56:19;;;;;;;0.50;0.20;;;3.00;99.90;;;;;;4936385;29;20511;-68
2023/01/28 00:58:47;;;;;;;0.50;0.10;;;3.00;99.90;;;;;;4929029;29;20464;-69
2023/01/28 05:00:37;;;;;;;0.50;0.10;;;3.20;99.90;;;;;;5931307;23;20685;-68
2023/01/28 05:03:05;;;;;;;4.63;0.50;;;3.20;99.90;;;;;;4955619;28;20443;-68
2023/01/28 05:05:33;;;;;;;2.30;0.63;;;3.00;99.90;;;;;;4955881;29;20443;-67
2023/01/28 05:08:01;;;;;;;0.50;0.10;;;3.00;99.90;;;;;;4952464;29;20432;-68
2023/01/28 05:10:29;;;;;;;0.50;0.10;;;3.00;99.90;;;;;;4955955;29;20447;-68
2023/01/28 05:12:57;;;;;;;0.80;0.40;;;3.00;99.90;;;;;;4937628;29;20448;-68
2023/01/28 05:15:24;;;;;;;0.50;0.20;;;2.90;99.90;;;;;;4964559;23;20504;-72
2023/01/28 05:17:56;;;;;;;0.50;0.10;;;2.90;99.90;;;;;;4957099;29;20495;-72
2023/01/28 05:20:24;;;;;;;2.87;2.20;;;2.90;99.90;;;;;;4957154;29;20451;-72
2023/01/28 05:22:52;;;;;;;0.50;0.20;;;2.90;99.90;;;;;;4956921;29;20542;-70
2023/01/28 05:25:20;;;;;;;0.70;0.20;;;2.90;99.90;;;;;;4956904;29;20474;-72
2023/01/28 05:27:50;;;;;;;0.93;0.93;;;2.90;99.90;;;;;;4956616;28;20458;-72
2023/01/28 05:30:18;;;;;;;0.60;0.30;;;2.90;99.90;;;;;;4957896;29;20447;-74
2023/01/28 05:32:46;;;;;;;0.50;0.10;;;2.90;99.90;;;;;;4957081;29;20448;-70
2023/01/28 05:35:16;;;;;;;1.20;1.10;;;2.90;99.90;;;;;;4957507;29;20472;-72
2023/01/28 05:37:44;;;;;;;0.50;0.10;;;2.80;99.90;;;;;;4958074;29;20478;-71
2023/01/28 05:40:12;;;;;;;0.50;0.10;;;2.80;99.90;;;;;;4957609;29;20444;-73
2023/01/28 05:42:41;;;;;;;0.50;0.20;;;2.90;99.90;;;;;;4957116;29;20458;-71
2023/01/28 05:45:10;;;;;;;0.50;0.10;;;2.90;99.90;;;;;;4961397;29;20470;-72
2023/01/28 05:47:38;;;;;;;0.50;0.10;;;2.90;99.90;;;;;;4966799;28;20938;-72
2023/01/28 05:50:07;;;;;;;0.50;0.10;;;2.90;99.90;;;;;;4961192;29;20451;-72
2023/01/28 05:52:36;;;;;;;0.50;0.33;;;2.90;99.90;;;;;;4963056;29;20461;-72
2023/01/28 05:55:04;;;;;;;0.50;0.10;;;2.80;99.90;;;;;;4961160;29;20532;-71
2023/01/28 05:57:32;;;;;;;0.60;0.20;;;2.80;99.90;;;;;;4956870;29;20494;-73
2023/01/28 06:00:00;;;;;;;0.50;0.10;;;2.80;99.90;;;;;;4956223;29;20447;-70
2023/01/28 06:02:27;;;;;;;0.50;0.10;;;2.90;99.90;;;;;;4959485;29;20455;-72
2023/01/28 06:04:55;;;;;;;0.50;0.10;;;2.90;99.90;;;;;;4963075;29;20624;-73
2023/01/28 06:07:23;;;;;;;0.90;0.40;;;2.90;99.90;;;;;;4964281;29;20455;-70
2023/01/28 06:09:53;;;;;;;0.50;0.10;;;2.90;99.90;;;;;;4959296;29;20970;-72
2023/01/28 06:12:20;;;;;;;0.50;0.10;;;2.90;99.90;;;;;;4956134;29;20739;-72
2023/01/28 06:14:48;;;;;;;0.60;0.30;;;2.90;99.90;;;;;;4957686;29;20492;-71
2023/01/28 06:17:16;;;;;;;0.50;0.20;;;2.90;99.90;;;;;;4960490;29;20969;-70
2023/01/28 06:19:44;;;;;;;0.50;0.20;;;2.90;99.90;;;;;;4961195;29;20443;-71
2023/01/28 06:22:12;;;;;;;0.50;0.10;;;2.90;99.90;;;;;;4959002;29;20467;-71
2023/01/28 06:24:40;;;;;;;0.60;0.47;;;3.00;99.90;;;;;;4956036;29;20469;-72
2023/01/28 06:27:09;;;;;;;0.50;0.20;;;3.00;99.90;;;;;;4956718;29;20458;-71
2023/01/28 06:29:37;;;;;;;0.50;0.10;;;3.00;99.90;;;;;;4956214;29;20819;-70
2023/01/28 06:32:05;;;;;;;0.50;0.30;;;3.00;99.90;;;;;;4955892;29;20451;-72
2023/01/28 06:34:33;;;;;;;0.60;0.30;;;3.00;99.90;;;;;;4955644;29;20463;-71
2023/01/28 06:37:03;;;;;;;0.63;0.60;;;3.00;99.90;;;;;;4956214;29;20866;-71
2023/01/28 06:39:32;;;;;;;0.50;0.10;;;3.00;99.90;;;;;;4955304;28;20487;-72
2023/01/28 06:42:00;;;;;;;0.50;0.10;;;3.00;99.90;;;;;;4957449;29;20478;-72
2023/01/28 06:44:29;;;;;;;0.50;0.10;;;3.00;99.90;;;;;;4959658;29;20481;-72
2023/01/28 06:46:57;;;;;;;0.50;0.20;;;3.00;99.90;;;;;;4941118;29;20460;-71
2023/01/28 06:49:25;;;;;;;0.50;0.10;;;3.00;99.90;;;;;;4939618;29;20516;-72
2023/01/28 06:51:53;;;;;;;0.80;0.40;;;3.00;99.90;;;;;;4938075;29;20444;-72
2023/01/28 06:54:21;;;;;;;0.50;0.10;;;3.00;99.90;;;;;;4936811;29;20478;-71
2023/01/28 06:56:49;;;;;;;0.50;0.20;;;3.00;99.90;;;;;;4936683;29;20459;-70
2023/01/28 06:59:17;;;;;;;0.50;0.20;;;3.00;99.90;;;;;;4936782;29;20939;-70
2023/01/28 07:01:46;;;;;;;0.60;0.30;;;3.00;99.90;;;;;;4936161;29;20463;-70
2023/01/28 07:04:14;;;;;;;0.50;0.10;;;2.90;99.90;;;;;;4936812;29;20466;-72
2023/01/28 07:06:42;;;;;;;0.67;0.47;;;2.90;99.90;;;;;;4936695;29;20866;-72
2023/01/28 07:09:10;;;;;;;0.50;0.10;;;3.00;99.90;;;;;;4948233;29;20807;-72
2023/01/28 07:11:38;;;;;;;0.50;0.10;;;3.00;99.90;;;;;;4956095;29;20448;-72
2023/01/28 07:14:06;;;;;;;0.50;0.10;;;3.00;99.90;;;;;;4955465;29;20557;-72
2023/01/28 07:16:33;;;;;;;0.63;0.30;;;3.00;99.90;;;;;;4955273;29;20449;-72
2023/01/28 07:19:03;;;;;;;0.50;0.10;;;3.00;99.90;;;;;;4955173;29;20480;-72
2023/01/28 07:21:30;;;;;;;0.50;0.10;;;3.00;99.90;;;;;;4955568;29;20451;-73
2023/01/28 07:23:58;;;;;;;0.50;0.10;;;3.00;99.90;;;;;;4955133;29;20471;-71
2023/01/28 07:26:26;;;;;;;0.60;0.20;;;3.00;99.90;;;;;;4959174;29;20499;-70
2023/01/28 07:28:54;;;;;;;0.50;0.10;;;3.00;99.90;;;;;;4959518;29;20446;-72
2023/01/28 07:31:22;;;;;;;0.50;0.10;;;3.00;99.90;;;;;;4961920;29;20538;-72
2023/01/28 07:33:50;;;;;;;0.50;0.10;;;3.10;99.90;;;;;;4958162;29;20448;-72
2023/01/28 07:36:20;;;;;;;0.50;0.10;;;;;;;;;;4955411;29;20455;-72
2023/01/28 07:38:48;;;;;;;0.50;0.20;;;3.10;99.90;;;;;;4955622;29;20479;-72
2023/01/28 07:41:16;;;;;;;0.50;0.20;;;3.10;99.90;;;;;;4954981;29;20977;-72
2023/01/28 07:43:43;;;;;;;0.60;0.30;;;3.10;99.90;;;;;;4955422;29;20802;-72
2023/01/28 07:46:12;;;;;;;0.50;0.10;;;3.10;99.90;;;;;;4961294;29;20488;-72
2023/01/28 07:48:39;;;;;;;0.50;0.17;;;3.10;99.90;;;;;;4960002;29;20450;-71
2023/01/28 07:51:07;;;;;;;0.50;0.10;;;3.00;99.90;;;;;;4960133;28;20451;-72
2023/01/28 07:53:36;;;;;;;0.50;0.30;;;3.00;99.90;;;;;;4958563;29;20503;-71
2023/01/28 07:56:05;;;;;;;0.90;0.60;;;3.00;99.90;;;;;;4955219;29;20447;-72
2023/01/28 07:58:33;;;;;;;0.50;0.10;;;3.00;99.90;;;;;;4955033;29;20994;-71
2023/01/28 08:01:01;;;;;;;0.50;0.10;;;3.00;99.90;;;;;;4955100;29;20478;-73
2023/01/28 08:03:29;;;;;;;0.50;0.20;;;3.00;99.90;;;;;;4955798;29;20849;-70
2023/01/28 08:05:57;;;;;;;0.60;0.20;;;3.00;99.90;;;;;;4955873;29;20481;-71
2023/01/28 08:08:27;;;;;;;0.50;0.10;;;3.00;99.90;;;;;;4956458;29;20463;-72
2023/01/28 08:10:56;;;;;;;0.57;0.27;;;3.00;99.90;;;;;;4958125;29;20458;-70
2023/01/28 08:13:24;;;;;;;0.50;0.10;;;3.10;99.90;;;;;;4959373;29;20459;-70
2023/01/28 08:15:55;;;;;;;1.27;0.40;;;3.00;99.90;;;;;;4959901;29;20484;-71
2023/01/28 08:18:23;;;;;;;0.50;0.10;;;3.00;99.90;;;;;;4959819;29;20815;-71
2023/01/28 08:20:55;;;;;;;0.50;0.10;;;3.00;99.90;;;;;;4959927;29;20451;-70
2023/01/28 08:23:25;;;;;;;0.50;0.10;;;3.00;99.90;;;;;;4960477;28;20463;-72
2023/01/28 08:25:54;;;;;;;0.50;0.20;;;3.00;99.90;;;;;;4961609;28;20490;-72
2023/01/28 08:28:23;;;;;;;0.50;0.10;;;2.90;99.90;;;;;;4960097;29;20449;-72
2023/01/28 08:30:51;;;;;;;0.50;0.20;;;3.00;99.90;;;;;;4959003;29;20537;-70
2023/01/28 08:33:19;;;;;;;0.50;0.27;;;3.00;99.90;;;;;;4961454;29;20458;-72
2023/01/28 08:35:47;;;;;;;0.50;0.10;;;3.00;99.90;;;;;;4965091;29;20555;-72
2023/01/28 08:38:16;;;;;;;0.50;0.20;;;2.90;99.90;;;;;;4961706;29;20532;-71
2023/01/28 08:40:44;;;;;;;0.50;0.20;;;3.00;99.90;;;;;;4960236;29;20932;-72
2023/01/28 08:43:12;;;;;;;0.73;0.47;;;3.00;99.90;;;;;;4955708;29;20463;-71
2023/01/28 08:45:41;;;;;;;0.50;0.10;;;3.00;99.90;;;;;;4953802;29;20471;-73
2023/01/28 08:48:14;;;;;;;0.50;0.10;;;3.10;99.90;;;;;;4950662;28;20447;-71
2023/01/28 08:50:42;;;;;;;1.13;1.13;;;3.10;99.90;;;;;;4940939;29;20861;-71
2023/01/28 08:53:12;;;;;;;0.50;0.20;;;3.10;97.90;;;;;;4945985;28;20462;-72
2023/01/28 08:55:40;;;;;;;0.60;0.40;;;3.10;97.70;;;;;;4935812;29;20477;-71
2023/01/28 08:58:12;;;;;;;0.60;0.37;;;3.00;96.50;;;;;;4951428;29;20450;-71
2023/01/28 09:00:45;;;;;;;0.50;0.20;;;3.00;95.00;;;;;;4939952;29;20535;-71
2023/01/28 09:03:17;;;;;;;1.03;0.70;;;3.00;96.10;;;;;;4959838;28;20478;-72
2023/01/28 09:05:45;;;;;;;0.50;0.20;;;3.10;96.10;;;;;;4964797;28;20557;-72
2023/01/28 09:08:15;;;;;;;0.50;0.10;;;3.00;95.00;;;;;;4963890;29;20442;-72
2023/01/28 09:10:43;;;;;;;0.50;0.20;;;3.00;98.50;;;;;;4951709;29;20534;-73
2023/01/28 09:13:13;;;;;;;0.50;0.10;;;3.00;96.80;;;;;;4956667;29;20463;-72
2023/01/28 09:15:43;;;;;;;0.50;0.10;;;3.00;92.80;;;;;;4956317;29;20475;-72
2023/01/28 09:18:11;;;;;;;0.60;0.30;;;3.00;92.50;;;;;;4960244;28;20450;-71
2023/01/28 09:20:39;;;;;;;0.50;0.20;;;3.00;92.70;;;;;;4955373;29;20487;-72
2023/01/28 09:23:07;;;;;;;0.50;0.10;;;3.00;93.10;;;;;;4960725;29;20448;-70
2023/01/28 09:25:35;;;;;;;0.87;0.50;;;3.00;91.50;;;;;;4952476;29;20994;-72
2023/01/28 09:28:05;;;;;;;0.50;0.10;;;3.00;95.90;;;;;;4958794;29;20470;-71
2023/01/28 09:30:33;;;;;;;0.50;0.20;;;3.00;92.10;;;;;;4960411;29;20451;-72
2023/01/28 09:33:06;;;;;;;0.50;0.10;;;3.10;96.80;;;;;;4953638;29;20476;-71
2023/01/28 09:35:35;;;;;;;0.50;0.10;;;3.10;93.70;;;;;;4953822;29;20482;-71
2023/01/28 09:38:03;;;;;;;0.50;0.20;;;3.20;94.20;;;;;;4947337;29;20484;-72
2023/01/28 09:40:36;;;;;;;0.50;0.10;;;3.20;96.30;;;;;;4945497;29;20470;-72
2023/01/28 09:43:40;;;;;;;0.73;0.73;;;3.20;95.60;;;;;;4961597;29;20448;-73
2023/01/28 09:46:12;;;;;;;0.70;0.50;;;3.20;91.70;;;;;;4959864;28;20455;-72
2023/01/28 09:48:44;;;;;;;0.50;0.10;;;3.10;90.60;;;;;;4944427;29;20456;-72
2023/01/28 09:51:29;;;;;;;0.50;0.10;;;3.10;94.30;;;;;;4947718;29;20927;-70
2023/01/28 09:54:00;;;;;;;0.50;0.10;;;3.10;91.10;;;;;;4952449;29;20587;-72
2023/01/28 09:56:31;;;;;;;0.50;0.10;;;3.20;92.20;;;;;;4938711;29;20551;-72
2023/01/28 09:59:12;;;;;;;0.50;0.10;;;3.20;92.30;;;;;;4946542;29;20494;-72
2023/01/28 10:01:46;;;;;;;0.50;0.10;;;3.30;92.60;;;;;;4958673;29;20862;-72
2023/01/28 10:04:24;;;;;;;0.50;0.20;;;3.30;89.40;;;;;;4942308;29;20832;-72
2023/01/28 10:07:02;;;;;;;0.50;0.30;;;3.30;93.00;;;;;;4948932;28;20458;-72
2023/01/28 10:09:41;;;;;;;0.50;0.10;;;3.20;92.60;;;;;;4942983;29;20444;-72
2023/01/28 10:12:24;;;;;;;0.70;0.70;;;3.30;90.60;;;;;;4952251;29;20469;-71
2023/01/28 10:15:09;;;;;;;0.50;0.10;;;3.30;90.10;;;;;;4951229;28;20489;-72
2023/01/28 10:17:43;;;;;;;1.03;0.93;;;3.20;88.50;;;;;;4956335;29;20950;-73
2023/01/28 10:20:21;;;;;;;0.83;0.40;;;3.20;86.10;;;;;;4954625;28;21012;-72
2023/01/28 10:22:56;;;;;;;0.50;0.10;;;3.20;82.40;;;;;;4948932;28;20872;-73
2023/01/28 10:25:28;;;;;;;0.50;0.10;;;3.10;84.30;;;;;;4946393;29;20469;-78
2023/01/28 10:27:56;;;;;;;1.47;1.37;;;3.20;91.50;;;;;;4949803;29;20463;-73
2023/01/28 10:30:25;;;;;;;0.60;0.40;;;3.20;91.10;;;;;;4954603;29;20448;-73
2023/01/28 10:32:59;;;;;;;0.50;0.20;;;3.20;91.30;;;;;;4955222;29;20444;-73
2023/01/28 10:35:29;;;;;;;0.50;0.10;;;3.20;82.60;;;;;;4957361;29;20479;-72
2023/01/28 10:38:01;;;;;;;0.80;0.57;;;3.20;90.10;;;;;;4956970;29;20440;-73
2023/01/28 10:40:29;;;;;;;1.17;1.07;;;3.20;77.30;;;;;;4957424;29;20482;-72
2023/01/28 10:42:57;;;;;;;0.50;0.10;;;3.20;76.90;;;;;;4955510;29;20819;-72
2023/01/28 10:45:28;;;;;;;0.50;0.10;;;3.20;76.00;;;;;;4956409;28;20498;-71
2023/01/28 10:48:02;;;;;;;0.50;0.10;;;3.30;73.30;;;;;;4938072;28;20503;-72
2023/01/28 10:50:31;;;;;;;0.70;0.30;;;3.30;80.20;;;;;;4952825;29;20476;-72
2023/01/28 10:53:01;;;;;;;0.60;0.30;;;3.20;71.50;;;;;;4945891;29;20450;-72
2023/01/28 10:55:34;;;;;;;0.50;0.17;;;3.30;71.20;;;;;;4960531;29;20627;-72
2023/01/28 10:58:18;;;;;;;0.50;0.10;;;3.30;71.60;;;;;;4962566;29;20467;-73
2023/01/28 11:00:52;;;;;;;0.50;0.17;;;3.40;70.90;;;;;;4960814;29;20479;-72
2023/01/28 11:03:20;;;;;;;0.50;0.10;;;3.40;64.70;;;;;;4957904;29;20992;-72
2023/01/28 11:05:54;;;;;;;0.67;0.30;;;3.40;64.20;;;;;;4949890;28;20472;-72
2023/01/28 11:08:24;;;;;;;0.50;0.10;;;3.40;58.90;;;;;;4961229;29;20435;-72
2023/01/28 11:10:53;;;;;;;0.60;0.40;;;3.40;65.60;;;;;;4949820;29;20441;-70
2023/01/28 11:13:22;;;;;;;0.50;0.10;;;2.70;66.40;;;;;;4961325;29;20443;-71
2023/01/28 11:15:53;;;;;;;0.87;0.63;;;3.40;61.20;;;;;;4947268;29;20463;-72
2023/01/28 11:18:24;;;;;;;0.50;0.10;;;3.40;55.30;;;;;;4950300;29;20499;-72
2023/01/28 11:20:56;;;;;;;0.50;0.20;;;3.40;55.30;;;;;;4949662;29;20894;-72
2023/01/28 11:26:05;;;;;;;0.50;0.20;;;3.50;55.40;;;;;;4867526;29;20504;-69
2023/01/28 11:28:35;;;;;;;0.50;0.10;;;3.50;47.30;;;;;;4877427;29;20458;-69
2023/01/28 11:31:04;;;;;;;0.50;0.10;;;3.40;39.40;;;;;;4869793;29;20455;-70
2023/01/28 11:33:36;;;;;;;0.50;0.10;;;3.40;41.20;;;;;;4875869;29;20457;-70
2023/01/28 11:36:11;;;;;;;0.50;0.20;;;3.40;48.90;;;;;;4877937;29;20835;-71
2023/01/28 11:38:52;;;;;;;0.50;0.10;;;3.40;37.00;;;;;;4882519;29;20457;-69
2023/01/28 11:41:27;;;;;;;1.10;1.10;;;3.40;37.20;;;;;;4885945;29;20511;-70
2023/01/28 11:43:56;;;;;;;0.60;0.30;;;3.30;30.60;;;;;;4883542;29;20472;-70
2023/01/28 11:46:41;;;;;;;8.33;7.83;;;3.30;38.60;;;;;;4879080;29;20876;-68
2023/01/28 11:49:18;;;;;;;0.60;0.50;;;3.30;37.90;;;;;;4879070;29;20453;-68
2023/01/28 11:51:54;;;;;;;0.50;0.10;;;3.30;39.30;;;;;;4878130;29;20451;-71
2023/01/28 11:54:38;;;;;;;0.50;0.10;;;3.40;27.90;;;;;;4878615;29;20563;-70
2023/01/28 11:57:21;;;;;;;0.50;0.10;;;3.40;34.00;;;;;;4878275;29;20460;-70
2023/01/28 12:00:06;;;;;;;1.27;0.47;;;3.30;30.80;;;;;;4877952;29;20454;-69
2023/01/28 12:02:48;;;;;;;0.50;0.10;;;3.40;20.40;;;;;;4878178;29;20485;-70
2023/01/28 12:05:30;;;;;;;0.50;0.10;;;3.40;20.60;;;;;;4878277;29;21007;-70
2023/01/28 12:08:07;;;;;;;0.50;0.20;;;3.40;20.50;;;;;;4876048;29;20457;-70
2023/01/28 12:10:44;;;;;;;0.50;0.10;;;3.40;26.50;;;;;;4873643;29;20833;-69
2023/01/28 12:13:28;;;;;;;0.50;0.20;;;3.40;19.60;;;;;;4870389;29;20827;-70
2023/01/28 12:16:17;;;;;;;0.60;0.50;;;3.30;17.90;;;;;;4877281;29;20801;-69
2023/01/28 12:19:09;;;;;;;0.60;0.30;;;3.30;22.90;;;;;;4878422;29;20457;-70
2023/01/28 12:21:49;;;;;;;0.50;0.10;;;3.30;16.60;;;;;;4873818;29;20482;-70
2023/01/28 12:24:32;;;;;;;0.60;0.37;;;3.30;16.20;;;;;;4877958;29;20485;-70
2023/01/28 12:27:07;;;;;;;0.50;0.10;;;3.30;21.70;;;;;;4878773;29;20447;-70
2023/01/28 12:29:41;;;;;;;0.50;0.10;;;3.30;21.80;;;;;;4879039;29;20789;-68
2023/01/28 12:32:27;;;;;;;0.50;0.10;;;3.30;15.20;;;;;;4878217;29;20450;-68
2023/01/28 12:35:22;;;;;;;0.50;0.10;;;3.30;10.90;;;;;;4877966;29;20558;-70
2023/01/28 12:38:04;;;;;;;0.70;0.40;;;3.30;13.30;;;;;;4878418;29;20526;-69
2023/01/28 12:40:55;;;;;;;0.50;0.10;;;3.20;1.10;;;;;;4881344;29;20455;-70
2023/01/28 12:43:36;;;;;;;0.50;0.20;;;3.10;1.00;;;;;;4877198;29;20472;-70
2023/01/28 12:46:11;;;;;;;0.50;0.10;;;3.10;4.40;;;;;;4874581;29;20789;-70
2023/01/28 12:48:43;;;;;;;0.50;0.10;;;3.10;3.50;;;;;;4875810;29;20469;-69
2023/01/28 12:51:16;;;;;;;0.50;0.10;;;3.10;3.70;;;;;;4879931;29;20445;-69
2023/01/28 12:53:49;;;;;;;0.50;0.10;;;3.10;1.00;;;;;;4881660;29;20444;-69
2023/01/28 12:56:22;;;;;;;0.50;0.20;;;3.10;2.60;;;;;;4881630;29;20454;-69
2023/01/28 12:58:56;;;;;;;0.50;0.13;;;3.10;1.00;;;;;;4881888;29;20458;-69
2023/01/28 13:01:29;;;;;;;0.50;0.10;;;3.20;1.00;;;;;;4883086;29;20493;-70
2023/01/28 13:04:03;;;;;;;0.50;0.10;;;3.20;1.00;;;;;;4888394;29;21009;-69
2023/01/28 13:06:38;;;;;;;0.50;0.10;;;3.20;1.00;;;;;;4879388;29;21139;-71
2023/01/28 13:09:15;;;;;;;0.60;0.40;;;3.20;1.00;;;;;;4877976;29;20467;-71
2023/01/28 13:11:45;;;;;;;1.20;0.50;;;3.20;1.00;;;;;;4878254;29;20489;-69
2023/01/28 13:14:14;;;;;;;1.67;1.00;;;3.20;1.00;;;;;;4881074;29;20478;-70
2023/01/28 13:16:42;;;;;;;0.50;0.10;;;3.10;1.00;;;;;;4880862;29;20455;-71
2023/01/28 13:19:23;;;;;;;0.50;0.10;;;3.20;1.00;;;;;;4880979;29;20582;-70
2023/01/28 13:21:51;;;;;;;0.50;0.10;;;3.20;1.00;;;;;;4878580;29;20498;-70
2023/01/28 13:24:24;;;;;;;0.50;0.10;;;3.30;1.00;;;;;;4880277;29;20496;-69
2023/01/28 13:26:56;;;;;;;0.50;0.20;;;3.30;1.00;;;;;;4881002;29;20450;-70
2023/01/28 13:29:32;;;;;;;0.97;0.20;;;3.20;1.00;;;;;;4874757;29;20961;-68
2023/01/28 13:32:01;;;;;;;1.03;0.87;;;3.20;1.00;;;;;;4874568;29;20451;-70
2023/01/28 13:34:35;;;;;;;1.00;0.80;;;3.20;1.00;;;;;;4874922;29;20463;-70
2023/01/28 13:37:15;;;;;;;0.50;0.23;;;3.20;1.00;;;;;;4866193;29;20514;-69
2023/01/28 13:39:48;;;;;;;0.50;0.10;;;3.10;1.00;;;;;;4876761;29;20450;-70
2023/01/28 13:42:26;;;;;;;1.10;0.70;;;3.10;1.00;;;;;;4880371;29;21136;-70
2023/01/28 13:44:54;;;;;;;0.50;0.10;;;3.10;1.00;;;;;;4881922;29;20477;-70
2023/01/28 13:47:34;;;;;;;1.13;0.70;;;3.20;1.00;;;;;;4880241;29;20460;-70
2023/01/28 13:50:04;;;;;;;0.57;0.37;;;3.20;1.00;;;;;;4877721;29;20555;-70
2023/01/28 13:52:36;;;;;;;0.50;0.10;;;3.20;1.00;;;;;;4880395;29;20822;-70
2023/01/28 13:55:14;;;;;;;0.50;0.20;;;3.20;1.00;;;;;;4879603;29;20483;-70
2023/01/28 13:58:34;;;;;;;0.50;0.20;;;3.20;1.00;;;;;;4881133;29;20453;-70
2023/01/28 14:01:32;;;;;;;0.87;0.60;;;3.20;1.00;;;;;;4880637;29;20458;-71
2023/01/28 14:04:42;;;;;;;1.23;0.50;;;3.20;1.00;;;;;;4854573;29;20819;-69
2023/01/28 14:07:26;;;;;;;0.50;0.20;;;3.20;1.00;;;;;;4804566;29;20478;-69
2023/01/28 14:10:25;;;;;;;0.50;0.10;;;3.10;1.00;;;;;;4871491;29;20503;-69
2023/01/28 14:13:22;;;;;;;0.50;0.10;;;3.10;1.00;;;;;;4847425;29;20448;-70
2023/01/28 14:15:58;;;;;;;0.50;0.10;;;3.10;1.00;;;;;;4860344;29;21276;-70
2023/01/28 14:18:28;;;;;;;0.50;0.10;;;3.10;1.00;;;;;;4862020;29;20443;-70
2023/01/28 14:21:00;;;;;;;0.50;0.10;;;3.10;1.00;;;;;;4860275;29;20452;-69
2023/01/28 14:23:31;;;;;;;0.50;0.10;;;3.20;1.00;;;;;;4879018;29;20498;-71
2023/01/28 14:26:13;;;;;;;1.40;0.93;;;3.20;1.00;;;;;;4874075;29;20477;-70
2023/01/28 14:28:50;;;;;;;0.50;0.10;;;3.10;1.00;;;;;;4864239;29;20445;-70
2023/01/28 14:31:26;;;;;;;0.50;0.10;;;3.10;1.00;;;;;;4879141;29;20460;-69
2023/01/28 14:33:55;;;;;;;0.50;0.10;;;3.10;1.00;;;;;;4879096;29;20986;-69
2023/01/28 14:36:23;;;;;;;0.50;0.10;;;3.10;1.00;;;;;;4878063;29;20535;-70
2023/01/28 14:38:57;;;;;;;0.50;0.10;;;3.10;1.00;;;;;;4874717;29;20451;-70
2023/01/28 14:41:27;;;;;;;0.50;0.10;;;3.20;1.00;;;;;;4864997;29;20457;-71
2023/01/28 14:43:57;;;;;;;0.50;0.10;;;3.20;1.00;;;;;;4880127;29;20491;-70
2023/01/28 14:46:35;;;;;;;0.50;0.10;;;3.20;1.00;;;;;;4880023;29;20482;-70
2023/01/28 14:49:23;;;;;;;0.50;0.10;;;3.20;1.00;;;;;;4880663;29;20455;-70
2023/01/28 14:52:16;;;;;;;0.50;0.10;;;3.20;1.00;;;;;;4879914;29;20495;-71
2023/01/28 14:54:58;;;;;;;0.90;0.50;;;3.30;1.00;;;;;;4880794;29;20468;-71
2023/01/28 14:57:40;;;;;;;2.63;0.37;;;3.10;1.00;;;;;;4865381;29;20553;-69
2023/01/28 15:00:21;;;;;;;0.80;0.40;;;3.20;1.00;;;;;;4879776;29;20479;-71
2023/01/28 15:02:50;;;;;;;0.50;0.10;;;3.00;1.00;;;;;;4879482;29;20494;-71
2023/01/28 15:05:20;;;;;;;0.50;0.10;;;3.00;1.00;;;;;;4878837;29;20540;-70
2023/01/28 15:07:49;;;;;;;0.50;0.10;;;3.00;1.00;;;;;;4879500;29;20461;-70
2023/01/28 15:10:20;;;;;;;0.50;0.20;;;3.00;1.00;;;;;;4870357;29;20972;-69
2023/01/28 15:12:52;;;;;;;0.50;0.10;;;3.00;1.00;;;;;;4879215;29;20447;-71
2023/01/28 15:15:26;;;;;;;0.50;0.30;;;;;;;;;;4879551;29;20575;-71
2023/01/28 15:17:56;;;;;;;0.50;0.10;;;3.10;1.00;;;;;;4879853;29;20440;-72
2023/01/28 15:20:24;;;;;;;0.50;0.10;;;3.20;1.00;;;;;;4868467;29;20964;-72
2023/01/28 15:22:53;;;;;;;0.73;0.73;;;;;;;;;;4865389;29;20475;-71
2023/01/28 15:25:23;;;;;;;0.50;0.10;;;;;;;;;;4867679;29;20535;-73
2023/01/28 15:27:54;;;;;;;0.50;0.10;;;3.20;1.00;;;;;;4881495;29;20462;-70
2023/01/28 15:30:25;;;;;;;0.50;0.20;;;3.20;1.00;;;;;;4873176;29;20973;-70
2023/01/28 15:32:59;;;;;;;0.50;0.20;;;3.10;1.00;;;;;;4877439;29;20870;-72
2023/01/28 15:35:27;;;;;;;0.50;0.10;;;3.10;1.00;;;;;;4876682;29;20531;-70
2023/01/28 15:37:55;;;;;;;0.50;0.10;;;;;;;;;;4871190;29;20498;-69
2023/01/28 15:40:25;;;;;;;0.50;0.10;;;3.10;1.00;;;;;;4874782;29;21053;-72
2023/01/28 15:42:57;;;;;;;0.50;0.10;;;3.20;1.00;;;;;;4876218;29;20498;-70
2023/01/28 15:45:29;;;;;;;0.50;0.10;;;3.20;1.00;;;;;;4873594;29;20991;-70
2023/01/28 15:48:07;;;;;;;0.60;0.43;;;3.10;1.00;;;;;;4877864;29;20459;-72
2023/01/28 15:50:37;;;;;;;0.50;0.10;;;3.10;1.00;;;;;;4874382;29;20556;-70
2023/01/28 15:53:09;;;;;;;0.50;0.10;;;3.10;1.00;;;;;;4875424;29;20442;-72
2023/01/28 15:55:40;;;;;;;0.50;0.10;;;3.10;1.00;;;;;;4868448;29;20552;-72
2023/01/28 15:58:19;;;;;;;0.50;0.10;;;3.10;1.00;;;;;;4870900;29;20523;-70
2023/01/28 16:00:49;;;;;;;0.50;0.10;;;3.10;1.00;;;;;;4879842;29;20485;-70
2023/01/28 16:03:20;;;;;;;0.50;0.10;;;3.10;1.00;;;;;;4879732;29;20535;-71
2023/01/28 16:05:58;;;;;;;0.50;0.10;;;3.10;1.00;;;;;;4878453;29;20922;-69
2023/01/28 16:08:30;;;;;;;0.50;0.10;;;3.10;1.00;;;;;;4877757;29;20466;-70
2023/01/28 16:10:58;;;;;;;0.50;0.10;;;3.20;1.00;;;;;;4872097;29;20831;-69
2023/01/28 16:13:27;;;;;;;0.50;0.10;;;3.20;1.00;;;;;;4878810;29;20457;-70
2023/01/28 16:15:57;;;;;;;0.50;0.10;;;3.20;1.00;;;;;;4872648;29;20451;-71
2023/01/28 16:18:37;;;;;;;0.50;0.10;;;3.20;1.00;;;;;;4876138;29;20447;-71
2023/01/28 16:21:07;;;;;;;0.50;0.10;;;3.30;1.00;;;;;;4878605;29;20469;-69
2023/01/28 16:23:38;;;;;;;0.50;0.20;;;3.40;1.00;;;;;;4876441;29;20543;-69
2023/01/28 16:26:20;;;;;;;0.50;0.10;;;3.40;1.00;;;;;;4871603;29;20444;-69
2023/01/28 16:28:48;;;;;;;0.50;0.20;;;3.40;1.00;;;;;;4879139;29;20453;-69
2023/01/28 16:31:18;;;;;;;0.50;0.10;;;3.40;1.00;;;;;;4881922;29;21220;-69
2023/01/28 16:33:46;;;;;;;0.50;0.10;;;-0.20;1.00;;;;;;4881873;29;20470;-70
2023/01/28 16:36:16;;;;;;;0.50;0.10;;;3.20;1.00;;;;;;4881716;29;20450;-69
2023/01/28 16:38:45;;;;;;;0.50;0.10;;;;;;;;;;4881686;29;20450;-72
2023/01/28 16:41:21;;;;;;;0.50;0.10;;;3.20;1.00;;;;;;4881234;29;20518;-68
2023/01/28 16:43:48;;;;;;;0.50;0.10;;;4.30;1.00;;;;;;4881030;29;21007;-70
2023/01/28 16:46:18;;;;;;;0.50;0.10;;;3.20;1.00;;;;;;4881684;29;20452;-70
2023/01/28 16:48:46;;;;;;;0.50;0.10;;;3.20;1.00;;;;;;4879321;29;20825;-71
2023/01/28 16:51:16;;;;;;;0.50;0.10;;;3.20;1.00;;;;;;4879283;29;20895;-68
2023/01/28 16:53:46;;;;;;;0.50;0.10;;;3.20;1.00;;;;;;4880676;29;20488;-70
2023/01/28 16:56:15;;;;;;;0.50;0.10;;;3.20;1.00;;;;;;4880089;29;20456;-70
2023/01/28 16:59:03;;;;;;;0.50;0.10;;;3.20;1.00;;;;;;4880011;29;20529;-69
2023/01/28 17:01:32;;;;;;;0.50;0.10;;;3.20;1.00;;;;;;4882295;29;20457;-70
2023/01/28 17:04:02;;;;;;;0.50;0.10;;;3.20;1.00;;;;;;4882342;29;20517;-69
2023/01/28 17:06:33;;;;;;;0.50;0.10;;;3.20;1.00;;;;;;4881350;29;20450;-69
2023/01/28 17:09:01;;;;;;;0.60;0.40;;;3.20;1.00;;;;;;4881478;29;20456;-70
2023/01/28 17:11:29;;;;;;;0.50;0.10;;;2.40;1.00;;;;;;4881127;29;20460;-69
2023/01/28 17:13:56;;;;;;;0.50;0.10;;;3.20;1.00;;;;;;4881688;29;20478;-71
2023/01/28 17:16:24;;;;;;;0.70;0.53;;;3.10;1.00;;;;;;4881683;29;20447;-70
2023/01/28 17:18:54;;;;;;;0.50;0.10;;;3.10;1.00;;;;;;4881276;29;20455;-68
2023/01/28 17:21:25;;;;;;;0.50;0.10;;;3.10;1.00;;;;;;4881915;29;21154;-69
2023/01/28 17:23:52;;;;;;;0.50;0.10;;;3.10;1.00;;;;;;4880883;29;20494;-69
2023/01/28 17:26:21;;;;;;;0.50;0.10;;;;;;;;;;4969629;23;20494;-72
2023/01/28 17:28:52;;;;;;;0.60;0.53;;;3.10;1.00;;;;;;4957964;29;20451;-71
2023/01/28 17:31:21;;;;;;;0.50;0.10;;;3.10;1.00;;;;;;4959358;29;20542;-72